Bei Facebook empfehlenBei Twitter postenGoogle plusPinterest

Das Wetter im Erzgebirge am 25.08.2016

Wetter und Klima am 25.08.2016 Holzhau im Erzgebirge (630m ü.NN)
Letzte gemessene Temperatur und Uhrzeit der Messung23:45:00 Uhr17.90 °C
Temperatur (Maximum / Höchstwert) und Uhrzeit der Messung16:30:00 Uhr26.70 °C
Temperatur (Minimum / Tiefstwert) und Uhrzeit der Messung05:30:0010.90 °C
Errechneter Absolutwert der Temperaturschwankungen zwischen Tmin und Tmax des Tages15.80 K
Errechnete Tagesmitteltemperatur18.57292 °C
Gesamt - Niederschlag des Tages (in flüssiger Form)0.00 Liter / m²
Luftdruck (Maximum / Höchstwert) und Zeitpunkt der Messung00:00:00 Uhr1022.00 hPa
Luftdruck (Minimum / Tiefstwert) und Zeitpunkt der Messung23:15:00 Uhr1018.10 hPa
Errechneter Absolutwert der Luftdruckschwankungen des Tages3.90 hPa
Höchste gemessene Windgeschwindigkeit und Uhrzeit der Messung23:45:00 Uhr0.00 km/h
Errechnete Windhäufigkeit in Relation zu den Messwerten des Tages0.00000 %
Niedrigste Windkühle (Windchill) und Zeitpunkt der Messung05:30:00 Uhr10.90 °C
Taupunkt (Maximum / Höchstwert) und Uhrzeit der Messung09:15:00 Uhr17.00 °C
Taupunkt (Minimum / Tiefstwert) und Uhrzeit der Messung05:30:009.70 °C
Anzahl der automatisch eingelesenen Messwerte 96

Detaillierte Wetter- und Klima- Messwerte für den 25.08.2016 in Holzhau im Erzgebirge (630m ü.NN)
ZeitTemperaturLuftdruckRel. LuftfeuchteWindWindrichtungWindchillTaupunktNiederschlag l/m²
23:45:0017.90 °C1018.30 hPa63.00 %10.80 °C 
23:30:0017.90 °C1018.20 hPa63.00 %10.80 °C 
23:15:0017.80 °C1018.10 hPa64.00 %10.90 °C 
23:00:0017.60 °C1018.30 hPa65.00 %10.90 °C 
22:45:0017.50 °C1018.30 hPa66.00 %11.10 °C 
22:30:0017.30 °C1018.30 hPa68.00 %11.30 °C 
22:15:0017.50 °C1018.50 hPa68.00 %11.50 °C 
22:00:0017.80 °C1018.50 hPa67.00 %11.60 °C 
21:45:0017.90 °C1018.50 hPa67.00 %11.70 °C 
21:30:0017.90 °C1018.60 hPa66.00 %11.50 °C 
21:15:0018.10 °C1018.90 hPa65.00 %11.40 °C 
21:00:0018.10 °C1018.80 hPa65.00 %11.40 °C 
20:45:0017.90 °C1018.70 hPa63.00 %10.80 °C 
20:30:0018.30 °C1018.80 hPa62.00 %10.90 °C 
20:15:0018.90 °C1018.60 hPa61.00 %11.20 °C 
20:00:0019.60 °C1018.60 hPa59.00 %11.40 °C 
19:45:0020.40 °C1018.70 hPa57.00 %11.60 °C 
19:30:0021.40 °C1018.60 hPa55.00 %12.00 °C 
19:15:0022.40 °C1018.80 hPa54.00 %12.60 °C 
19:00:0023.30 °C1018.90 hPa52.00 %12.90 °C 
18:45:0023.90 °C1019.10 hPa51.00 %13.20 °C 
18:30:0024.30 °C1019.00 hPa51.00 %13.50 °C 
18:15:0024.40 °C1019.00 hPa50.00 %13.30 °C 
18:00:0024.90 °C1019.20 hPa50.00 %13.80 °C 
17:45:0025.50 °C1019.20 hPa49.00 %14.00 °C 
17:30:0025.90 °C1019.40 hPa51.00 %15.00 °C 
17:15:0025.90 °C1019.60 hPa50.00 %14.70 °C 
17:00:0025.90 °C1019.60 hPa52.00 %15.30 °C 
16:45:0026.30 °C1019.70 hPa51.00 %15.40 °C 
16:30:0026.70 °C1019.80 hPa53.00 %16.30 °C 
16:15:0026.50 °C1019.90 hPa54.00 %16.40 °C 
16:00:0026.10 °C1019.70 hPa54.00 %16.10 °C 
15:45:0025.80 °C1019.90 hPa55.00 %16.10 °C 
15:30:0025.60 °C1019.80 hPa55.00 %15.90 °C 
15:15:0025.60 °C1020.00 hPa57.00 %16.40 °C 
15:00:0025.30 °C1020.20 hPa57.00 %16.20 °C 
14:45:0025.30 °C1020.00 hPa58.00 %16.40 °C 
14:30:0025.10 °C1020.10 hPa60.00 %16.80 °C 
14:15:0025.00 °C1019.70 hPa60.00 %16.70 °C 
14:00:0024.80 °C1019.90 hPa60.00 %16.50 °C 
13:45:0024.30 °C1019.90 hPa59.00 %15.80 °C 
13:30:0024.10 °C1020.10 hPa59.00 %15.60 °C 
13:15:0023.50 °C1020.20 hPa61.00 %15.50 °C 
13:00:0023.40 °C1020.30 hPa61.00 %15.50 °C 
12:45:0023.20 °C1020.30 hPa62.00 %15.50 °C 
12:30:0023.10 °C1020.30 hPa62.00 %15.40 °C 
12:15:0022.90 °C1020.30 hPa64.00 %15.70 °C 
12:00:0023.00 °C1020.40 hPa63.00 %15.60 °C 
11:45:0022.90 °C1020.40 hPa64.00 %15.70 °C 
11:30:0022.90 °C1020.50 hPa65.00 %16.00 °C 
11:15:0022.90 °C1020.60 hPa67.00 %16.40 °C 
11:00:0022.30 °C1020.60 hPa68.00 %16.10 °C 
10:45:0021.90 °C1020.50 hPa68.00 %15.70 °C 
10:30:0021.60 °C1020.70 hPa70.00 %15.90 °C 
10:15:0021.40 °C1020.70 hPa71.00 %15.90 °C 
10:00:0021.10 °C1020.40 hPa74.00 %16.30 °C 
09:45:0020.80 °C1020.40 hPa77.00 %16.60 °C 
09:30:0020.30 °C1020.30 hPa80.00 %16.70 °C 
09:15:0019.80 °C1020.10 hPa84.00 %17.00 °C 
09:00:0018.80 °C1020.20 hPa86.00 %16.40 °C 
08:45:0018.10 °C1020.20 hPa88.00 %16.10 °C 
08:30:0017.40 °C1020.00 hPa90.00 %15.70 °C 
08:15:0016.80 °C1020.00 hPa91.00 %15.30 °C 
08:00:0015.90 °C1020.30 hPa92.00 %14.60 °C 
07:45:0014.90 °C1020.30 hPa93.00 %13.80 °C 
07:30:0013.60 °C1020.40 hPa93.00 %12.50 °C 
07:15:0013.00 °C1020.40 hPa93.00 %11.90 °C 
07:00:0012.80 °C1020.30 hPa93.00 %11.70 °C 
06:45:0012.60 °C1020.40 hPa93.00 %11.50 °C 
06:30:0012.50 °C1020.20 hPa93.00 %11.40 °C 
06:15:0012.20 °C1020.20 hPa93.00 %11.10 °C 
06:00:0011.90 °C1020.50 hPa93.00 %10.80 °C 
05:45:0011.50 °C1020.60 hPa93.00 %10.40 °C 
05:30:0010.90 °C1020.60 hPa92.00 %9.70 °C 
05:15:0010.90 °C1020.60 hPa92.00 %9.70 °C 
05:00:0011.40 °C1020.70 hPa92.00 %10.10 °C 
04:45:0012.20 °C1020.80 hPa92.00 %10.90 °C 
04:30:0011.90 °C1020.70 hPa92.00 %10.60 °C 
04:15:0012.40 °C1020.90 hPa92.00 %11.10 °C 
04:00:0012.40 °C1021.10 hPa92.00 %11.10 °C 
03:45:0012.30 °C1021.10 hPa92.00 %11.00 °C 
03:30:0011.90 °C1021.10 hPa92.00 %10.60 °C 
03:15:0011.60 °C1021.10 hPa92.00 %10.30 °C 
03:00:0011.30 °C1021.20 hPa91.00 %9.90 °C 
02:45:0011.30 °C1021.40 hPa91.00 %9.90 °C 
02:30:0011.40 °C1021.40 hPa91.00 %10.00 °C 
02:15:0011.30 °C1021.40 hPa91.00 %9.90 °C 
02:00:0011.40 °C1021.40 hPa91.00 %10.00 °C 
01:45:0011.70 °C1021.50 hPa91.00 %10.30 °C 
01:30:0011.90 °C1021.50 hPa91.00 %10.50 °C 
01:15:0011.60 °C1021.80 hPa90.00 %10.00 °C 
01:00:0011.80 °C1021.90 hPa90.00 %10.20 °C 
00:45:0011.90 °C1021.90 hPa89.00 %10.10 °C 
00:30:0012.30 °C1021.70 hPa90.00 %10.70 °C 
00:15:0012.60 °C1021.70 hPa89.00 %10.80 °C 
00:00:0012.90 °C1022.00 hPa89.00 %11.10 °C 

Permanenter Link zu dieser Seite: Wetter im Erzgebirge am 25.08.2016
Performance-Info: Die Erstellung der Seite / Statistik(en) / Tabelle(n) erforderte 5 Datenbankserver-Abfrage(n) und dauerte 97 Millisekunden. (Dieser Messwert ist von der Gesamt-Auslastung des Servers abhängig.)
Erzgebirge - Wetter | Erzgebirge - Wetter (Mobilgeräte) | Komplette Klimadatenbank